Time;durP1;ratioP1;P1;durP2;ratioP2;P2;SDS_P1;SDS_P2;PMS_P1;PMS_P2;Temp;Humidity;BMP_temperature;BMP_pressure;BME280_temperature;BME280_humidity;BME280_pressure;Samples;Min_cycle;Max_cycle;Signal;HPM_P1;HPM_P2
2022/08/12 00:43:18;;;;;;;6.13;3.60;;;25.40;60.00;;;;;;4989260;28;20044;-60
2022/08/12 00:48:28;;;;;;;7.00;3.75;;;25.30;60.10;;;;;;5003304;28;20045;-61
2022/08/12 00:50:54;;;;;;;7.88;4.30;;;25.30;60.10;;;;;;5002830;28;20060;-61
2022/08/12 00:53:20;;;;;;;6.47;3.85;;;25.30;60.10;;;;;;4986410;28;20620;-60
2022/08/12 00:55:46;;;;;;;15.93;4.55;;;25.20;60.10;;;;;;5002184;28;20129;-63
2022/08/12 00:58:14;;;;;;;6.32;3.95;;;25.20;60.20;;;;;;5002276;28;20034;-60
2022/08/12 01:00:40;;;;;;;7.35;4.50;;;25.20;60.30;;;;;;5002199;28;20030;-60
2022/08/12 01:03:06;;;;;;;11.18;4.55;;;25.10;60.40;;;;;;4983454;28;20024;-60
2022/08/12 01:13:47;;;;;;;16.02;6.35;;;25.00;60.90;;;;;;4986022;28;20245;-60
2022/08/12 01:16:15;;;;;;;15.05;4.05;;;25.00;60.90;;;;;;5020420;28;20597;-60
2022/08/12 01:18:41;;;;;;;5.85;4.40;;;25.00;60.90;;;;;;5002625;28;20065;-60
2022/08/12 01:21:17;;;;;;;11.15;5.00;;;25.00;62.00;;;;;;5003746;28;20050;-60
2022/08/12 01:24:21;;;;;;;7.20;4.47;;;24.90;61.50;;;;;;5004326;28;20025;-59
2022/08/12 01:26:46;;;;;;;9.27;3.95;;;24.90;61.00;;;;;;5001380;28;20133;-60
2022/08/12 01:29:14;;;;;;;4.88;3.67;;;24.90;60.90;;;;;;5000962;28;20404;-60
2022/08/12 01:31:40;;;;;;;5.72;4.20;;;24.90;60.70;;;;;;5004517;28;20056;-60
2022/08/12 01:34:07;;;;;;;8.15;4.38;;;24.90;60.60;;;;;;5002773;28;20112;-59
2022/08/12 01:36:40;;;;;;;7.45;4.05;;;24.90;60.60;;;;;;5001851;28;20014;-60
2022/08/12 01:39:06;;;;;;;6.90;3.90;;;24.80;60.60;;;;;;5003473;28;20038;-61
2022/08/12 01:41:32;;;;;;;6.80;4.25;;;24.80;60.60;;;;;;5003421;28;20115;-60
2022/08/12 01:43:59;;;;;;;6.40;3.90;;;24.80;60.60;;;;;;4990338;28;20022;-60
2022/08/12 01:47:02;;;;;;;13.00;4.40;;;24.70;60.70;;;;;;5008947;28;20828;-60
2022/08/12 01:50:05;;;;;;;8.27;4.13;;;24.70;61.50;;;;;;5009478;28;20041;-59
2022/08/12 01:52:44;;;;;;;6.75;3.90;;;24.60;60.70;;;;;;5007738;28;20061;-60
2022/08/12 01:55:10;;;;;;;6.03;4.28;;;24.60;60.70;;;;;;5007116;28;20374;-60
2022/08/12 01:57:46;;;;;;;8.15;4.28;;;24.60;60.80;;;;;;4987721;28;20053;-59
2022/08/12 02:00:13;;;;;;;7.13;3.63;;;24.60;60.90;;;;;;4991342;28;20375;-59
2022/08/12 02:02:45;;;;;;;9.60;3.85;;;24.60;60.90;;;;;;5003742;28;20026;-60
2022/08/12 02:11:28;;;;;;;4.60;3.22;;;24.50;60.80;;;;;;4993045;28;20171;-60
2022/08/12 02:14:31;;;;;;;5.63;3.30;;;24.50;60.80;;;;;;5005120;28;20115;-60
2022/08/12 02:17:21;;;;;;;4.57;3.70;;;24.50;60.80;;;;;;5006071;28;20133;-60
2022/08/12 02:20:11;;;;;;;4.57;3.90;;;24.40;60.90;;;;;;5004735;28;20186;-60
2022/08/12 02:22:42;;;;;;;5.63;3.67;;;24.30;61.00;;;;;;5005653;28;20172;-61
2022/08/12 02:25:13;;;;;;;4.85;3.58;;;24.30;61.20;;;;;;4989532;28;20022;-60
2022/08/12 02:27:41;;;;;;;5.93;3.75;;;24.20;61.20;;;;;;5005478;28;20362;-60
2022/08/12 02:30:08;;;;;;;7.15;3.92;;;24.20;61.30;;;;;;5004864;28;20029;-60
2022/08/12 02:32:37;;;;;;;5.30;3.40;;;24.20;61.30;;;;;;5003540;28;20038;-60
2022/08/12 02:35:04;;;;;;;4.40;3.22;;;24.10;61.30;;;;;;5002521;28;20126;-60
2022/08/12 02:37:29;;;;;;;5.10;3.65;;;24.10;61.20;;;;;;4986180;28;20652;-60
2022/08/12 02:39:55;;;;;;;7.78;2.88;;;24.10;61.30;;;;;;4972373;28;20057;-62
2022/08/12 02:42:21;;;;;;;6.45;3.20;;;24.10;61.30;;;;;;4988141;28;20038;-60
2022/08/12 02:44:48;;;;;;;7.13;2.97;;;24.00;61.40;;;;;;4986642;28;20031;-60
2022/08/12 02:47:14;;;;;;;5.75;3.00;;;24.00;61.40;;;;;;5005594;28;20045;-60
2022/08/12 02:49:43;;;;;;;4.25;3.03;;;24.00;61.50;;;;;;4995798;28;20489;-61
2022/08/12 02:52:08;;;;;;;5.95;3.30;;;24.00;61.50;;;;;;5006051;28;20018;-60
2022/08/12 02:54:34;;;;;;;10.00;2.78;;;23.90;61.60;;;;;;4988328;28;20038;-60
2022/08/12 02:56:59;;;;;;;5.97;3.03;;;23.90;61.60;;;;;;5006637;28;20034;-60
2022/08/12 02:59:26;;;;;;;7.25;2.40;;;23.90;62.40;;;;;;5005327;28;20057;-60
2022/08/12 03:01:52;;;;;;;3.28;2.30;;;23.80;61.70;;;;;;5005964;28;20030;-60
2022/08/12 03:04:39;;;;;;;4.65;2.55;;;23.80;61.70;;;;;;5001136;28;20638;-60
2022/08/12 03:07:27;;;;;;;4.95;2.40;;;23.80;61.80;;;;;;5005380;28;20026;-60
2022/08/12 03:09:54;;;;;;;2.97;2.20;;;23.70;61.90;;;;;;5005967;28;20041;-59
2022/08/12 03:12:20;;;;;;;2.97;2.20;;;23.70;61.90;;;;;;5004490;28;20057;-60
2022/08/12 03:14:46;;;;;;;3.58;2.40;;;23.60;61.90;;;;;;5007169;28;20145;-60
2022/08/12 03:17:28;;;;;;;5.03;2.33;;;23.60;61.90;;;;;;4986859;28;20022;-60
2022/08/12 03:19:54;;;;;;;2.67;2.33;;;23.60;62.00;;;;;;5002088;28;20022;-60
2022/08/12 03:22:20;;;;;;;3.75;2.47;;;23.60;62.10;;;;;;4988361;28;20509;-60
2022/08/12 03:24:46;;;;;;;3.92;2.08;;;23.60;62.10;;;;;;4988593;28;20041;-60
2022/08/12 03:27:12;;;;;;;3.90;1.83;;;23.60;62.00;;;;;;5004357;28;20037;-60
2022/08/12 03:29:38;;;;;;;2.95;1.90;;;23.50;62.10;;;;;;5003715;28;20112;-60
2022/08/12 03:32:04;;;;;;;3.10;2.10;;;23.50;62.10;;;;;;5004087;28;20068;-60
2022/08/12 03:34:34;;;;;;;4.45;2.15;;;23.50;62.10;;;;;;4988633;28;20123;-60
2022/08/12 03:37:01;;;;;;;4.38;2.20;;;23.40;62.10;;;;;;4989500;28;20099;-59
2022/08/12 03:39:48;;;;;;;2.55;1.98;;;23.40;62.20;;;;;;5004799;28;20466;-60
2022/08/12 03:42:34;;;;;;;3.90;1.75;;;23.40;62.30;;;;;;4989502;28;20440;-60
2022/08/12 04:01:56;;;;;;;5.05;2.03;;;23.20;62.40;;;;;;4990541;28;20370;-60
2022/08/12 04:04:33;;;;;;;6.57;1.77;;;23.20;62.40;;;;;;4988661;28;20109;-60
2022/08/12 04:07:06;;;;;;;3.65;1.80;;;23.20;62.50;;;;;;5005645;28;20026;-60
2022/08/12 04:09:32;;;;;;;3.38;2.35;;;23.10;62.60;;;;;;5006896;28;20037;-60
2022/08/12 04:14:42;;;;;;;3.17;2.13;;;23.00;62.80;;;;;;5001862;28;20040;-60
2022/08/12 04:17:07;;;;;;;3.63;2.20;;;23.00;63.00;;;;;;5002921;28;20042;-59
2022/08/12 04:19:33;;;;;;;3.50;2.22;;;23.00;63.10;;;;;;4988775;28;20052;-59
2022/08/12 04:21:59;;;;;;;7.63;1.98;;;23.00;63.10;;;;;;5003566;28;20735;-60
2022/08/12 04:24:25;;;;;;;6.82;1.95;;;22.90;63.20;;;;;;4991891;28;20022;-60
2022/08/12 04:26:51;;;;;;;3.05;2.00;;;22.90;63.20;;;;;;5001976;28;20100;-60
2022/08/12 04:29:19;;;;;;;3.63;1.75;;;22.90;63.10;;;;;;5003118;28;20095;-60
2022/08/12 04:31:45;;;;;;;6.20;2.05;;;22.90;63.20;;;;;;5016729;28;20021;-60
2022/08/12 04:34:10;;;;;;;4.72;2.08;;;22.80;63.20;;;;;;5004607;28;20025;-60
2022/08/12 04:36:39;;;;;;;2.80;2.00;;;22.90;63.10;;;;;;5006996;28;20030;-60
2022/08/12 04:39:06;;;;;;;3.80;2.20;;;22.80;63.10;;;;;;5001253;28;20378;-60
2022/08/12 04:41:32;;;;;;;6.18;2.00;;;22.80;63.10;;;;;;5003945;28;20048;-60
2022/08/12 04:43:57;;;;;;;5.43;2.30;;;22.80;63.10;;;;;;5002863;28;20022;-60
2022/08/12 04:46:23;;;;;;;8.65;2.80;;;22.70;63.00;;;;;;4972595;28;20029;-60
2022/08/12 04:48:49;;;;;;;16.90;3.42;;;22.70;63.00;;;;;;5003124;28;20732;-60
2022/08/12 04:51:15;;;;;;;6.93;2.75;;;22.80;63.00;;;;;;5004006;28;20548;-60
2022/08/12 04:53:40;;;;;;;10.65;3.05;;;22.70;62.80;;;;;;5003984;28;20042;-59
2022/08/12 04:56:06;;;;;;;8.77;2.83;;;22.70;62.80;;;;;;5002788;28;20037;-60
2022/08/12 04:58:33;;;;;;;10.07;2.60;;;22.70;62.70;;;;;;5003979;28;20033;-59
2022/08/12 05:00:58;;;;;;;5.75;2.17;;;22.70;62.40;;;;;;5007612;28;20044;-60
2022/08/12 05:03:25;;;;;;;3.83;2.20;;;22.60;62.40;;;;;;5001749;28;21997;-60
2022/08/12 05:05:50;;;;;;;7.90;2.22;;;22.60;62.60;;;;;;4989530;28;20030;-60
2022/08/12 05:08:16;;;;;;;4.20;2.10;;;22.50;62.50;;;;;;5004478;28;20078;-61
2022/08/12 05:10:42;;;;;;;5.78;2.42;;;22.50;62.70;;;;;;5036325;28;20049;-59
2022/08/12 05:13:26;;;;;;;3.80;2.03;;;22.40;62.70;;;;;;5001513;28;20033;-60
2022/08/12 05:15:51;;;;;;;4.10;2.00;;;22.50;62.80;;;;;;4993765;28;20173;-60
2022/08/12 05:18:17;;;;;;;8.23;2.20;;;22.40;62.90;;;;;;5008359;28;20113;-60
2022/08/12 05:20:42;;;;;;;7.32;2.20;;;22.40;63.00;;;;;;5006904;28;20413;-60
2022/08/12 05:23:18;;;;;;;8.70;2.40;;;22.30;62.90;;;;;;5000502;28;20022;-59
2022/08/12 05:25:45;;;;;;;7.25;2.10;;;22.30;63.00;;;;;;4983582;28;20021;-59
2022/08/12 05:28:12;;;;;;;6.80;2.30;;;22.30;62.90;;;;;;5006678;28;20030;-59
2022/08/12 05:30:37;;;;;;;5.18;2.00;;;22.20;62.90;;;;;;4999953;28;20140;-60
2022/08/12 05:33:04;;;;;;;8.30;2.17;;;22.20;63.10;;;;;;4997423;28;20022;-60
2022/08/12 05:35:40;;;;;;;2.95;2.03;;;22.20;63.10;;;;;;4999556;28;20127;-59
2022/08/12 05:40:50;;;;;;;5.68;2.00;;;22.20;63.10;;;;;;5001337;28;20121;-60
2022/08/12 05:43:16;;;;;;;4.80;2.03;;;22.10;63.00;;;;;;4997853;28;20129;-59
2022/08/12 05:45:41;;;;;;;2.95;2.00;;;22.20;63.00;;;;;;5014026;28;20404;-60
2022/08/12 05:48:07;;;;;;;5.10;1.77;;;22.10;63.00;;;;;;5000540;28;20046;-60
2022/08/12 05:50:34;;;;;;;2.53;2.05;;;22.10;62.90;;;;;;5001141;28;20573;-60
2022/08/12 05:53:00;;;;;;;3.30;2.03;;;22.00;63.00;;;;;;4998153;28;20103;-59
2022/08/12 05:55:26;;;;;;;3.92;2.17;;;22.00;63.00;;;;;;4978552;28;20128;-60
2022/08/12 05:57:55;;;;;;;2.55;1.92;;;22.00;63.20;;;;;;5029395;28;20145;-59
2022/08/12 06:00:24;;;;;;;2.35;1.85;;;22.00;63.10;;;;;;4996651;28;20378;-60
2022/08/12 06:02:59;;;;;;;3.10;2.17;;;22.00;63.10;;;;;;4990823;28;20034;-60
2022/08/12 06:05:35;;;;;;;6.40;2.47;;;22.00;63.20;;;;;;5001079;28;20516;-60
2022/08/12 06:08:04;;;;;;;7.75;1.83;;;22.00;63.30;;;;;;4999953;28;20033;-63
2022/08/12 06:10:30;;;;;;;5.03;1.90;;;21.80;63.50;;;;;;4998564;28;20042;-59
2022/08/12 06:12:57;;;;;;;2.97;1.75;;;21.80;63.80;;;;;;4999166;28;20413;-60
2022/08/12 06:15:23;;;;;;;2.55;1.90;;;21.80;63.90;;;;;;4999320;28;20109;-62
2022/08/12 06:17:48;;;;;;;3.97;1.70;;;21.70;64.10;;;;;;5000296;28;20030;-60
2022/08/12 06:20:14;;;;;;;6.38;1.90;;;21.70;64.20;;;;;;4992973;28;20044;-61
2022/08/12 06:22:40;;;;;;;5.13;2.20;;;21.70;64.40;;;;;;4997952;28;20475;-60
2022/08/12 06:25:06;;;;;;;1.90;1.63;;;21.60;64.50;;;;;;4997780;28;20025;-60
2022/08/12 06:27:33;;;;;;;2.88;1.80;;;21.60;64.60;;;;;;4999764;28;20026;-62
2022/08/12 06:30:01;;;;;;;6.47;2.10;;;21.60;64.80;;;;;;4996975;28;20250;-59
2022/08/12 06:32:27;;;;;;;5.55;2.03;;;21.60;64.80;;;;;;4999864;28;20032;-60
2022/08/12 06:34:53;;;;;;;5.90;2.30;;;21.60;65.10;;;;;;4982019;28;20026;-59
2022/08/12 06:37:18;;;;;;;6.43;1.95;;;21.60;65.10;;;;;;4997359;28;20048;-61
2022/08/12 06:39:44;;;;;;;12.60;2.67;;;21.60;65.20;;;;;;4998470;28;20065;-60
2022/08/12 06:44:53;;;;;;;7.93;2.30;;;21.60;65.40;;;;;;4999218;28;20040;-60
2022/08/12 06:47:20;;;;;;;6.50;2.20;;;21.60;65.60;;;;;;5014337;28;20034;-61
2022/08/12 06:49:47;;;;;;;11.20;3.10;;;21.60;65.70;;;;;;4999546;28;20038;-61
2022/08/12 06:52:12;;;;;;;15.52;3.05;;;21.60;65.90;;;;;;4999868;28;20534;-60
2022/08/12 06:54:39;;;;;;;14.15;2.85;;;21.50;65.90;;;;;;4998325;28;20063;-60
2022/08/12 06:57:05;;;;;;;15.82;3.20;;;21.50;65.80;;;;;;4999584;28;20037;-60
2022/08/12 06:59:34;;;;;;;14.80;3.47;;;21.60;66.00;;;;;;5001054;28;20401;-60
2022/08/12 07:01:59;;;;;;;11.77;2.60;;;21.50;66.00;;;;;;4997405;28;20109;-60
2022/08/12 07:04:25;;;;;;;15.10;2.50;;;21.50;65.90;;;;;;5000987;28;20299;-61
2022/08/12 07:06:50;;;;;;;36.40;5.45;;;21.60;66.00;;;;;;4994721;28;20038;-60
2022/08/12 07:09:16;;;;;;;26.45;4.78;;;21.60;66.00;;;;;;4993847;28;20038;-61
2022/08/12 07:11:43;;;;;;;30.15;4.00;;;21.60;66.00;;;;;;4979968;28;20064;-61
2022/08/12 07:14:08;;;;;;;21.75;3.63;;;21.60;65.90;;;;;;4997436;28;20029;-61
2022/08/12 07:16:52;;;;;;;59.05;6.18;;;21.70;66.20;;;;;;4998403;28;20029;-60
2022/08/12 07:19:18;;;;;;;28.30;4.70;;;21.70;66.20;;;;;;4997733;28;20042;-60
2022/08/12 07:21:45;;;;;;;35.10;3.83;;;21.70;66.30;;;;;;4994599;28;20847;-60
2022/08/12 07:24:10;;;;;;;24.80;4.20;;;21.70;66.20;;;;;;5002828;28;20034;-60
2022/08/12 07:26:39;;;;;;;13.32;4.00;;;21.70;66.20;;;;;;4987248;28;20037;-60
2022/08/12 07:29:04;;;;;;;14.38;2.88;;;21.70;66.20;;;;;;5001735;28;20176;-60
2022/08/12 07:31:30;;;;;;;12.15;3.25;;;21.70;66.30;;;;;;4994619;28;20112;-60
2022/08/12 07:33:55;;;;;;;17.50;3.72;;;21.70;66.30;;;;;;4998635;28;20394;-60
2022/08/12 07:36:21;;;;;;;21.10;3.47;;;21.70;66.20;;;;;;5000672;28;20488;-60
2022/08/12 07:38:50;;;;;;;26.52;3.67;;;21.70;66.30;;;;;;4999034;28;20022;-61
2022/08/12 07:41:27;;;;;;;18.83;4.25;;;21.70;66.20;;;;;;4997554;28;20166;-60
2022/08/12 07:43:54;;;;;;;23.33;3.75;;;21.70;66.30;;;;;;4993860;28;20042;-61
2022/08/12 07:46:22;;;;;;;31.77;4.38;;;21.80;66.60;;;;;;4995171;28;20049;-60
2022/08/12 07:48:52;;;;;;;28.98;4.20;;;21.80;66.40;;;;;;4999700;28;20485;-61
2022/08/12 07:51:19;;;;;;;15.82;4.28;;;21.80;66.40;;;;;;5001838;28;20113;-60
2022/08/12 07:53:45;;;;;;;22.77;3.78;;;21.80;66.30;;;;;;4979768;28;20038;-61
2022/08/12 07:56:10;;;;;;;23.88;3.58;;;21.70;66.40;;;;;;5000645;28;20291;-60
2022/08/12 07:58:39;;;;;;;31.00;4.28;;;21.80;66.20;;;;;;4998721;28;20401;-61
2022/08/12 08:01:14;;;;;;;22.20;3.90;;;21.80;66.20;;;;;;4998867;28;20024;-60
2022/08/12 08:04:54;;;;;;;12.55;2.90;;;21.80;66.20;;;;;;4995751;28;20532;-60
2022/08/12 08:06:26;;;;;;;18.35;3.33;;;21.80;66.10;;;;;;4999353;28;20655;-60
2022/08/12 08:08:55;;;;;;;20.33;3.30;;;21.80;66.10;;;;;;5001156;28;20281;-60
2022/08/12 08:14:06;;;;;;;12.52;2.80;;;21.90;66.00;;;;;;4983322;28;20076;-61
2022/08/12 08:16:32;;;;;;;29.38;5.85;;;21.90;66.10;;;;;;5003564;28;20832;-62
2022/08/12 08:18:58;;;;;;;33.05;5.05;;;21.90;65.90;;;;;;4999815;28;20018;-62
2022/08/12 08:21:32;;;;;;;40.10;6.05;;;21.90;66.10;;;;;;5025681;28;20125;-61
2022/08/12 08:24:13;;;;;;;24.08;4.70;;;21.90;66.00;;;;;;4994873;28;20113;-60
2022/08/12 08:26:44;;;;;;;37.00;5.82;;;21.90;65.90;;;;;;4994202;28;20033;-60
2022/08/12 08:29:11;;;;;;;21.85;4.30;;;22.00;65.90;;;;;;4999011;28;20034;-61
2022/08/12 08:31:42;;;;;;;22.75;4.47;;;22.00;65.70;;;;;;4996370;28;20025;-60
2022/08/12 08:34:08;;;;;;;29.05;4.55;;;22.00;65.70;;;;;;4998621;28;20029;-60
2022/08/12 08:36:34;;;;;;;26.13;4.50;;;22.10;65.80;;;;;;4994780;28;20946;-60
2022/08/12 08:38:59;;;;;;;27.58;4.75;;;22.10;65.70;;;;;;4995586;28;20040;-60
2022/08/12 08:44:12;;;;;;;23.45;4.88;;;22.10;65.70;;;;;;4991404;28;20121;-61
2022/08/12 08:46:43;;;;;;;24.75;4.40;;;22.20;66.00;;;;;;4995930;28;20046;-61
2022/08/12 08:49:09;;;;;;;36.30;5.60;;;22.20;66.20;;;;;;4991507;28;20527;-60
2022/08/12 08:51:35;;;;;;;40.22;5.82;;;22.20;66.10;;;;;;5006032;28;20038;-61
2022/08/12 08:54:00;;;;;;;43.92;5.57;;;22.30;66.00;;;;;;4987514;28;20176;-61
2022/08/12 08:56:28;;;;;;;36.53;5.15;;;22.30;65.90;;;;;;4992326;28;20428;-60
2022/08/12 08:58:53;;;;;;;50.30;6.55;;;22.30;65.70;;;;;;4991869;28;20105;-62
2022/08/12 09:01:20;;;;;;;64.32;8.48;;;22.30;66.00;;;;;;4995181;28;20040;-61
2022/08/12 09:03:46;;;;;;;59.67;8.00;;;22.40;65.90;;;;;;4993144;28;20149;-61
2022/08/12 09:06:13;;;;;;;31.80;5.45;;;22.40;65.80;;;;;;4990559;28;20038;-60
2022/08/12 09:08:39;;;;;;;37.28;5.45;;;22.40;65.70;;;;;;4989499;28;20100;-62
2022/08/12 09:13:49;;;;;;;41.22;5.65;;;22.40;65.30;;;;;;5009906;28;20079;-61
2022/08/12 09:16:16;;;;;;;27.38;4.85;;;22.40;65.20;;;;;;4997596;28;20030;-59
2022/08/12 09:18:42;;;;;;;27.10;4.72;;;22.50;65.00;;;;;;4995638;28;20030;-60
2022/08/12 09:21:08;;;;;;;35.80;5.38;;;22.50;64.90;;;;;;4993484;28;20089;-59
2022/08/12 09:23:35;;;;;;;46.83;7.05;;;22.50;64.50;;;;;;4997605;28;20022;-60
2022/08/12 09:26:01;;;;;;;37.63;5.55;;;22.50;64.20;;;;;;4994442;28;20108;-60
2022/08/12 09:28:27;;;;;;;53.50;6.47;;;22.60;64.20;;;;;;4988558;28;20530;-59
2022/08/12 09:30:56;;;;;;;39.70;6.72;;;22.70;64.00;;;;;;4987026;28;20064;-59
2022/08/12 09:33:24;;;;;;;38.28;5.50;;;22.70;64.20;;;;;;4994050;28;20081;-59
2022/08/12 09:35:50;;;;;;;39.97;5.88;;;22.70;63.80;;;;;;4995461;28;20040;-60
2022/08/12 09:38:16;;;;;;;50.42;6.53;;;22.70;63.60;;;;;;4998231;28;20026;-60
2022/08/12 09:40:42;;;;;;;39.03;5.90;;;22.80;63.50;;;;;;4994356;28;20036;-60
2022/08/12 09:45:52;;;;;;;33.97;5.80;;;22.90;63.30;;;;;;4994148;28;20469;-60
2022/08/12 09:48:18;;;;;;;35.92;5.70;;;22.90;63.20;;;;;;4993153;28;20046;-60
2022/08/12 09:50:45;;;;;;;48.03;6.38;;;23.00;63.50;;;;;;4991610;28;20130;-60
2022/08/12 09:53:15;;;;;;;31.10;4.90;;;23.00;63.10;;;;;;4967692;28;20029;-60
2022/08/12 09:55:42;;;;;;;52.08;5.60;;;23.00;62.60;;;;;;4988753;28;20042;-59
2022/08/12 09:58:07;;;;;;;31.90;5.20;;;23.10;62.40;;;;;;4972989;28;20033;-60
2022/08/12 10:00:35;;;;;;;36.58;4.88;;;23.10;62.40;;;;;;4990558;28;20145;-60
2022/08/12 10:03:03;;;;;;;31.60;5.00;;;23.10;62.30;;;;;;4993179;28;20029;-60
2022/08/12 10:05:32;;;;;;;51.63;6.32;;;23.20;62.30;;;;;;4993557;28;20041;-60
2022/08/12 10:08:01;;;;;;;38.83;6.50;;;23.20;62.10;;;;;;4994735;28;20018;-60
2022/08/12 10:10:27;;;;;;;47.30;6.05;;;23.30;62.10;;;;;;4996041;28;20452;-60
2022/08/12 10:15:43;;;;;;;44.10;5.70;;;23.30;61.60;;;;;;4990725;28;20076;-63
2022/08/12 10:18:09;;;;;;;27.38;4.05;;;23.40;60.50;;;;;;4994428;28;20038;-58
2022/08/12 10:20:34;;;;;;;22.45;4.18;;;23.40;59.40;;;;;;4995524;28;20034;-59
2022/08/12 10:23:00;;;;;;;36.40;5.78;;;23.50;59.90;;;;;;4999933;28;20122;-60
2022/08/12 10:30:56;;;;;;;30.58;4.70;;;23.60;59.30;;;;;;4995739;28;20354;-59
2022/08/12 10:33:21;;;;;;;41.40;5.28;;;23.60;59.10;;;;;;4991947;28;20060;-59
2022/08/12 10:35:47;;;;;;;22.10;3.95;;;23.70;59.10;;;;;;4993013;28;20100;-59
2022/08/12 10:38:14;;;;;;;38.95;5.85;;;23.70;58.00;;;;;;4980008;28;20088;-60
2022/08/12 10:43:41;;;;;;;25.13;4.00;;;23.80;57.70;;;;;;4984677;28;20121;-60
2022/08/12 10:43:41;;;;;;;44.42;6.25;;;23.80;56.70;;;;;;4992376;28;20120;-60
2022/08/12 10:46:07;;;;;;;33.17;5.05;;;23.90;57.10;;;;;;4975848;28;20041;-60
2022/08/12 10:48:33;;;;;;;27.30;5.07;;;24.00;56.60;;;;;;4991222;28;20025;-59
2022/08/12 10:50:59;;;;;;;17.40;3.45;;;24.00;56.10;;;;;;4988583;28;20088;-60
2022/08/12 10:53:25;;;;;;;26.48;4.43;;;24.10;56.00;;;;;;4994906;28;20037;-60
2022/08/12 10:55:53;;;;;;;16.92;3.80;;;24.10;55.80;;;;;;4991051;28;20397;-60
2022/08/12 10:58:19;;;;;;;24.77;3.95;;;24.10;56.00;;;;;;4989076;28;20029;-59
2022/08/12 11:00:44;;;;;;;20.92;3.30;;;24.20;56.10;;;;;;4990998;28;20026;-59
2022/08/12 11:03:10;;;;;;;17.20;3.40;;;24.20;55.80;;;;;;4995376;28;20030;-60
2022/08/12 11:05:35;;;;;;;19.33;3.35;;;24.30;55.30;;;;;;4996827;28;20493;-60
2022/08/12 11:08:01;;;;;;;27.38;3.70;;;24.30;55.40;;;;;;4977733;28;20615;-60
2022/08/12 11:10:27;;;;;;;28.25;3.63;;;24.40;55.30;;;;;;4993156;28;20038;-60
2022/08/12 11:12:55;;;;;;;27.35;4.30;;;24.40;55.00;;;;;;5007360;28;20038;-60
2022/08/12 11:15:22;;;;;;;21.95;3.78;;;24.40;54.90;;;;;;4997042;28;20061;-60
2022/08/12 11:17:49;;;;;;;9.93;2.40;;;24.50;54.90;;;;;;4975701;28;20029;-61
2022/08/12 11:20:14;;;;;;;5.03;1.88;;;24.60;54.30;;;;;;4996089;28;20029;-59
2022/08/12 11:22:40;;;;;;;17.23;3.33;;;24.60;53.40;;;;;;4994602;28;20390;-59
2022/08/12 11:25:09;;;;;;;27.33;4.07;;;24.70;53.80;;;;;;4978709;28;20161;-60
2022/08/12 11:27:34;;;;;;;36.40;4.55;;;24.80;53.90;;;;;;4992886;28;20564;-60
2022/08/12 11:30:00;;;;;;;35.97;4.38;;;24.90;54.00;;;;;;4992160;28;20045;-61
2022/08/12 11:32:25;;;;;;;20.75;3.20;;;24.90;53.80;;;;;;4998137;28;20501;-60
2022/08/12 11:34:51;;;;;;;54.40;6.50;;;25.00;53.50;;;;;;4982545;28;20502;-60
2022/08/12 11:37:16;;;;;;;20.48;3.83;;;25.10;53.60;;;;;;5011490;28;20032;-60
2022/08/12 11:39:42;;;;;;;28.90;4.63;;;25.20;53.40;;;;;;4999954;28;20065;-60
2022/08/12 11:42:08;;;;;;;25.48;4.00;;;25.20;53.20;;;;;;4998184;28;20204;-60
2022/08/12 11:44:33;;;;;;;31.13;4.45;;;25.40;53.10;;;;;;4993223;28;20037;-60
2022/08/12 11:46:59;;;;;;;24.50;3.80;;;25.40;52.80;;;;;;4998225;28;20604;-60
2022/08/12 11:49:25;;;;;;;16.98;3.13;;;25.60;52.40;;;;;;4994513;28;20368;-60
2022/08/12 11:51:50;;;;;;;10.05;2.70;;;25.60;52.50;;;;;;4974436;28;20062;-63
2022/08/12 11:54:16;;;;;;;13.82;3.08;;;25.70;52.10;;;;;;4994376;28;20101;-60
2022/08/12 11:56:42;;;;;;;15.20;2.50;;;25.70;52.00;;;;;;4998089;28;20041;-62
2022/08/12 11:59:07;;;;;;;13.90;2.85;;;25.70;51.70;;;;;;4998759;28;20026;-64
2022/08/12 12:01:33;;;;;;;7.35;2.17;;;25.80;51.60;;;;;;4999437;28;20033;-60
2022/08/12 12:03:58;;;;;;;21.13;2.20;;;25.80;51.30;;;;;;4984645;28;20096;-60
2022/08/12 12:06:24;;;;;;;21.20;3.10;;;25.80;51.10;;;;;;4982515;28;20108;-60
2022/08/12 12:08:50;;;;;;;10.80;2.30;;;26.00;51.20;;;;;;4997234;28;20042;-59
2022/08/12 12:11:15;;;;;;;5.63;2.33;;;26.00;51.00;;;;;;4993431;28;20161;-60
2022/08/12 12:13:41;;;;;;;43.10;4.68;;;26.00;50.90;;;;;;4996611;28;20026;-60
2022/08/12 12:16:07;;;;;;;9.32;2.38;;;26.10;50.70;;;;;;4993043;28;20050;-60
2022/08/12 12:18:33;;;;;;;20.98;2.72;;;26.10;50.90;;;;;;4987081;28;20030;-60
2022/08/12 12:21:00;;;;;;;12.93;1.95;;;26.10;50.90;;;;;;5000853;28;20486;-60
2022/08/12 12:23:26;;;;;;;7.03;2.25;;;26.20;50.10;;;;;;4995678;28;21397;-60
2022/08/12 12:25:51;;;;;;;7.82;1.98;;;26.20;50.20;;;;;;5001135;28;20041;-61
2022/08/12 12:28:17;;;;;;;8.45;2.13;;;26.30;50.00;;;;;;4999394;28;20045;-60
2022/08/12 12:30:43;;;;;;;17.10;2.92;;;26.40;50.20;;;;;;4994823;28;20649;-60
2022/08/12 12:33:09;;;;;;;17.35;2.83;;;26.40;50.30;;;;;;4996451;28;20096;-60
2022/08/12 12:35:35;;;;;;;14.70;2.25;;;26.40;50.10;;;;;;4994457;28;20145;-60
2022/08/12 12:38:03;;;;;;;8.18;1.88;;;26.60;50.10;;;;;;4997415;28;20029;-60
2022/08/12 12:40:29;;;;;;;10.82;2.70;;;26.60;49.70;;;;;;4978015;28;20483;-60
2022/08/12 12:42:54;;;;;;;18.55;2.63;;;26.60;49.70;;;;;;4967953;28;20088;-60
2022/08/12 12:45:20;;;;;;;20.45;2.33;;;26.70;49.60;;;;;;5002259;28;20026;-60
2022/08/12 12:48:02;;;;;;;18.67;2.70;;;26.70;49.60;;;;;;4999929;28;20381;-61
2022/08/12 12:50:35;;;;;;;22.83;3.35;;;26.70;49.50;;;;;;4992363;28;20140;-61
2022/08/12 12:53:02;;;;;;;14.52;3.30;;;26.80;49.60;;;;;;4991666;28;20029;-61
2022/08/12 12:55:27;;;;;;;12.85;2.65;;;26.80;49.30;;;;;;4996686;28;20104;-60
2022/08/12 12:57:53;;;;;;;21.05;2.60;;;26.90;49.40;;;;;;4996875;28;20739;-60
2022/08/12 13:00:19;;;;;;;16.95;2.53;;;26.90;49.40;;;;;;4991291;28;20622;-60
2022/08/12 13:02:54;;;;;;;14.75;2.83;;;27.00;49.10;;;;;;4985945;28;20109;-61
2022/08/12 13:05:20;;;;;;;16.80;2.97;;;27.10;49.00;;;;;;4982122;28;20064;-60
2022/08/12 13:07:46;;;;;;;10.30;2.38;;;27.10;49.00;;;;;;5001066;28;20041;-60
2022/08/12 13:10:11;;;;;;;9.77;1.90;;;27.20;48.90;;;;;;5000620;28;20034;-60
2022/08/12 13:12:38;;;;;;;13.63;2.33;;;27.30;47.90;;;;;;4979319;28;20030;-60
2022/08/12 13:15:08;;;;;;;5.18;1.92;;;27.30;48.00;;;;;;4994373;28;20474;-61
2022/08/12 13:17:34;;;;;;;24.67;2.28;;;27.40;47.70;;;;;;4994041;28;20065;-61
2022/08/12 13:20:00;;;;;;;15.48;2.53;;;27.50;47.70;;;;;;4993674;28;20034;-60
2022/08/12 13:22:26;;;;;;;18.40;3.08;;;27.50;47.80;;;;;;4995022;28;20147;-61
2022/08/12 13:24:53;;;;;;;16.42;2.90;;;27.60;48.00;;;;;;4991409;28;20136;-61
2022/08/12 13:27:19;;;;;;;11.32;2.40;;;27.60;48.00;;;;;;4995094;28;20057;-61
2022/08/12 13:29:45;;;;;;;10.07;2.17;;;27.70;47.30;;;;;;5008778;28;20042;-61
2022/08/12 13:32:11;;;;;;;15.48;2.53;;;27.80;47.30;;;;;;4990205;28;20042;-62
2022/08/12 13:34:36;;;;;;;12.55;2.10;;;27.80;47.50;;;;;;4993418;28;20033;-62
2022/08/12 13:37:06;;;;;;;10.80;2.53;;;27.80;47.20;;;;;;4994417;28;20047;-62
2022/08/12 13:39:31;;;;;;;6.82;1.83;;;27.90;47.30;;;;;;4976414;28;20028;-62
2022/08/12 13:41:57;;;;;;;9.93;1.75;;;28.00;46.70;;;;;;4994270;28;20465;-62
2022/08/12 13:44:22;;;;;;;7.25;2.30;;;28.10;46.60;;;;;;4995657;28;20033;-62
2022/08/12 13:46:48;;;;;;;14.55;2.83;;;28.10;46.80;;;;;;4998774;28;20489;-62
2022/08/12 13:49:14;;;;;;;15.02;2.45;;;28.10;47.00;;;;;;4997585;28;20738;-64
2022/08/12 13:51:41;;;;;;;19.10;2.42;;;28.20;47.10;;;;;;4996879;28;22144;-62
2022/08/12 13:54:08;;;;;;;6.05;2.10;;;28.20;47.10;;;;;;5012737;28;20026;-62
2022/08/12 13:56:34;;;;;;;9.13;1.95;;;28.30;45.80;;;;;;4999762;28;20505;-62
2022/08/12 13:59:00;;;;;;;7.35;1.90;;;28.40;46.10;;;;;;4996342;28;20069;-62
2022/08/12 14:01:27;;;;;;;11.60;1.90;;;28.40;46.00;;;;;;4999767;28;20059;-62
2022/08/12 14:03:52;;;;;;;12.52;1.67;;;28.40;45.70;;;;;;4999624;28;20030;-62
2022/08/12 14:06:19;;;;;;;15.35;2.33;;;28.50;45.20;;;;;;4995298;28;20032;-62
2022/08/12 14:08:47;;;;;;;16.13;3.20;;;28.60;45.50;;;;;;4996213;28;20109;-62
2022/08/12 14:11:13;;;;;;;15.18;2.50;;;28.60;45.50;;;;;;4981365;28;20042;-62
2022/08/12 14:13:39;;;;;;;6.75;2.22;;;28.70;45.70;;;;;;4995693;28;20028;-62
2022/08/12 14:16:06;;;;;;;8.13;2.33;;;28.80;45.10;;;;;;4996260;28;20409;-62
2022/08/12 14:18:33;;;;;;;9.25;1.70;;;28.80;44.60;;;;;;4997177;28;20128;-62
2022/08/12 14:21:08;;;;;;;4.80;1.45;;;28.80;44.30;;;;;;4980771;28;21123;-62
2022/08/12 14:23:34;;;;;;;6.43;1.55;;;28.80;44.00;;;;;;4997869;28;20409;-62
2022/08/12 14:26:01;;;;;;;4.18;1.52;;;28.80;43.80;;;;;;4997673;28;20487;-62
2022/08/12 14:28:29;;;;;;;3.97;1.40;;;28.80;43.80;;;;;;4989496;28;20357;-62